Terminal Aerodrome Forecast
Issued by NWS

Home | Current Version | Previous Version | Text Only | Print | Product List | Glossary Off
Versions: 1 2 3 4 5 6 7 8 9 10 11 12 13 14 15 16 17 18 19 20 21 22 23 24 25 26 27

794
FTUS43 KABR 202336
TAFPIR
TAF
KPIR 202336Z 2100/2124 23013G18KT P6SM SKC
     FM210300 14008KT P6SM FEW200
     FM210600 14011KT P6SM FEW250 WS020/18045KT
     FM211500 15015G24KT P6SM FEW250
     FM212100 18010KT P6SM FEW250=

USA.gov is the U.S. government's official web portal to all federal, state and local government web resources and services.